Time;durP1;ratioP1;P1;durP2;ratioP2;P2;SDS_P1;SDS_P2;PMS_P1;PMS_P2;Temp;Humidity;BMP_temperature;BMP_pressure;BME280_temperature;BME280_humidity;BME280_pressure;Samples;Min_cycle;Max_cycle;Signal;HPM_P1;HPM_P2
2022/09/24 00:00:10;;;;;;;;;;;;;;;;;;6180321;23;19975;-78
2022/09/24 00:02:36;;;;;;;;;;;;;;;;;;6181106;23;20004;-79
2022/09/24 00:05:02;;;;;;;;;;;;;;;;;;6180497;23;19948;-77
2022/09/24 00:07:28;;;;;;;;;;;;;;;;;;6180989;23;19996;-78
2022/09/24 00:09:54;;;;;;;;;;;;;;;;;;6179582;23;19955;-81
2022/09/24 00:12:20;;;;;;;;;;;;;;;;;;6183674;23;19938;-79
2022/09/24 00:14:46;;;;;;;;;;;;;;;;;;6182735;23;19912;-79
2022/09/24 00:17:11;;;;;;;;;;;;;;;;;;6182211;23;20002;-78
2022/09/24 00:19:37;;;;;;;;;;;;;;;;;;6202345;23;19919;-79
2022/09/24 00:22:02;;;;;;;;;;;;;;;;;;6182666;23;20139;-78
2022/09/24 00:27:12;;;;;;;;;;;;;;;;;;6182149;23;19916;-79
2022/09/24 00:29:38;;;;;;;;;;;;;;;;;;6182267;23;20376;-77
2022/09/24 00:32:03;;;;;;;;;;;;;;;;;;6182208;23;20003;-77
2022/09/24 00:34:29;;;;;;;;;;;;;;;;;;6182175;23;19915;-76
2022/09/24 00:36:54;;;;;;;;;;;;;;;;;;6182067;23;20272;-76
2022/09/24 00:39:20;;;;;;;;;;;;;;;;;;6182110;23;19917;-76
2022/09/24 00:41:47;;;;;;;;;;;;;;;;;;6182205;23;20303;-75
2022/09/24 00:44:13;;;;;;;;;;;;;;;;;;6181831;23;19982;-75
2022/09/24 00:46:38;;;;;;;;;;;;;;;;;;6181937;23;19990;-75
2022/09/24 00:49:04;;;;;;;;;;;;;;;;;;6182018;23;20002;-77
2022/09/24 00:51:29;;;;;;;;;;;;;;;;;;6182645;23;19959;-77
2022/09/24 00:53:55;;;;;;;;;;;;;;;;;;6180193;23;19919;-77
2022/09/24 00:56:21;;;;;;;;;;;;;;;;;;6181972;23;19943;-76
2022/09/24 00:58:46;;;;;;;;;;;;;;;;;;6182117;23;19912;-77
2022/09/24 01:01:12;;;;;;;;;;;;;;;;;;6180195;23;19980;-78
2022/09/24 01:03:41;;;;;;;;;;;;;;;;;;6182017;23;19912;-77
2022/09/24 01:06:06;;;;;;;;;;;;;;;;;;6155617;23;20356;-79
2022/09/24 01:08:32;;;;;;;;;;;;;;;;;;6181814;23;19960;-77
2022/09/24 01:10:57;;;;;;;;;;;;;;;;;;6155498;23;20313;-77
2022/09/24 01:13:23;;;;;;;;;;;;;;;;;;6181765;23;19912;-77
2022/09/24 01:15:49;;;;;;;;;;;;;;;;;;6182064;23;20003;-77
2022/09/24 01:18:14;;;;;;;;;;;;;;;;;;6180038;23;19998;-75
2022/09/24 01:20:40;;;;;;;;;;;;;;;;;;6183227;23;19913;-76
2022/09/24 01:23:06;;;;;;;;;;;;;;;;;;6180323;23;20246;-75
2022/09/24 01:25:32;;;;;;;;;;;;;;;;;;6183216;23;19923;-77
2022/09/24 01:27:57;;;;;;;;;;;;;;;;;;6193729;23;20084;-78
2022/09/24 01:30:24;;;;;;;;;;;;;;;;;;6195816;23;19923;-76
2022/09/24 01:32:49;;;;;;;;;;;;;;;;;;6196637;23;19972;-77
2022/09/24 01:35:15;;;;;;;;;;;;;;;;;;6160939;23;19935;-76
2022/09/24 01:37:41;;;;;;;;;;;;;;;;;;6181126;23;20409;-78
2022/09/24 01:40:06;;;;;;;;;;;;;;;;;;6181714;23;20402;-78
2022/09/24 01:42:32;;;;;;;;;;;;;;;;;;6180016;23;19916;-76
2022/09/24 01:44:58;;;;;;;;;;;;;;;;;;6181488;23;19951;-78
2022/09/24 01:47:24;;;;;;;;;;;;;;;;;;6181823;23;19965;-77
2022/09/24 01:49:52;;;;;;;;;;;;;;;;;;6181816;23;20373;-76
2022/09/24 01:52:17;;;;;;;;;;;;;;;;;;6155157;23;19912;-77
2022/09/24 01:54:49;;;;;;;;;;;;;;;;;;6181788;23;19919;-78
2022/09/24 01:57:14;;;;;;;;;;;;;;;;;;6181647;23;19934;-78
2022/09/24 01:59:40;;;;;;;;;;;;;;;;;;6181924;23;20345;-77
2022/09/24 02:02:05;;;;;;;;;;;;;;;;;;6181403;23;20392;-76
2022/09/24 02:04:31;;;;;;;;;;;;;;;;;;6155035;23;19912;-77
2022/09/24 02:06:57;;;;;;;;;;;;;;;;;;6181558;23;19975;-78
2022/09/24 02:09:22;;;;;;;;;;;;;;;;;;6179716;23;20355;-78
2022/09/24 02:11:50;;;;;;;;;;;;;;;;;;6182860;23;19935;-78
2022/09/24 02:14:15;;;;;;;;;;;;;;;;;;6202085;23;19911;-78
2022/09/24 02:16:42;;;;;;;;;;;;;;;;;;6184083;23;20103;-78
2022/09/24 02:19:07;;;;;;;;;;;;;;;;;;6180906;23;19912;-79
2022/09/24 02:21:33;;;;;;;;;;;;;;;;;;6181536;23;19958;-76
2022/09/24 02:23:58;;;;;;;;;;;;;;;;;;6181060;23;20462;-77
2022/09/24 02:26:24;;;;;;;;;;;;;;;;;;6181303;23;19916;-77
2022/09/24 02:28:50;;;;;;;;;;;;;;;;;;6180980;23;20342;-77
2022/09/24 02:31:15;;;;;;;;;;;;;;;;;;6180908;23;19987;-78
2022/09/24 02:36:25;;;;;;;;;;;;;;;;;;6181133;23;19920;-77
2022/09/24 02:38:51;;;;;;;;;;;;;;;;;;6181284;23;19912;-77
2022/09/24 02:41:17;;;;;;;;;;;;;;;;;;6181375;23;20026;-79
2022/09/24 02:43:43;;;;;;;;;;;;;;;;;;6155649;23;20007;-78
2022/09/24 02:46:09;;;;;;;;;;;;;;;;;;6181115;23;19998;-81
2022/09/24 02:48:34;;;;;;;;;;;;;;;;;;6179444;23;19920;-80
2022/09/24 02:51:00;;;;;;;;;;;;;;;;;;6181015;23;19912;-79
2022/09/24 02:53:25;;;;;;;;;;;;;;;;;;6154108;23;20360;-78
2022/09/24 02:55:51;;;;;;;;;;;;;;;;;;6181183;23;20230;-78
2022/09/24 02:58:16;;;;;;;;;;;;;;;;;;6180609;23;19919;-81
2022/09/24 03:00:42;;;;;;;;;;;;;;;;;;6181024;23;19917;-80
2022/09/24 03:03:08;;;;;;;;;;;;;;;;;;6181070;23;19919;-80
2022/09/24 03:05:33;;;;;;;;;;;;;;;;;;6154598;23;19959;-78
2022/09/24 03:07:59;;;;;;;;;;;;;;;;;;6179526;23;19916;-79
2022/09/24 03:10:25;;;;;;;;;;;;;;;;;;6180729;23;19923;-80
2022/09/24 03:12:50;;;;;;;;;;;;;;;;;;6179460;23;19913;-80
2022/09/24 03:15:16;;;;;;;;;;;;;;;;;;6180679;23;20297;-80
2022/09/24 03:17:41;;;;;;;;;;;;;;;;;;6181283;23;19913;-80
2022/09/24 03:20:07;;;;;;;;;;;;;;;;;;6179220;23;19959;-80
2022/09/24 03:22:32;;;;;;;;;;;;;;;;;;6181123;23;20161;-78
2022/09/24 03:24:58;;;;;;;;;;;;;;;;;;6180970;23;19966;-78
2022/09/24 03:27:24;;;;;;;;;;;;;;;;;;6179218;23;20292;-78
2022/09/24 03:32:34;;;;;;;;;;;;;;;;;;6181004;23;19912;-81
2022/09/24 03:35:00;;;;;;;;;;;;;;;;;;6180248;23;19916;-79
2022/09/24 03:37:26;;;;;;;;;;;;;;;;;;6180737;23;19928;-78
2022/09/24 03:39:52;;;;;;;;;;;;;;;;;;6180844;23;20329;-80
2022/09/24 03:42:17;;;;;;;;;;;;;;;;;;6180582;23;19920;-78
2022/09/24 03:44:43;;;;;;;;;;;;;;;;;;6180578;23;19912;-78
2022/09/24 03:47:08;;;;;;;;;;;;;;;;;;6182630;23;19908;-78
2022/09/24 03:49:34;;;;;;;;;;;;;;;;;;6181286;23;19968;-78
2022/09/24 03:52:00;;;;;;;;;;;;;;;;;;6183025;23;19926;-78
2022/09/24 03:54:25;;;;;;;;;;;;;;;;;;6181260;23;19916;-77
2022/09/24 03:56:51;;;;;;;;;;;;;;;;;;6183090;23;19919;-77
2022/09/24 03:59:17;;;;;;;;;;;;;;;;;;6182727;23;19912;-78
2022/09/24 04:01:42;;;;;;;;;;;;;;;;;;6156217;23;19939;-78
2022/09/24 04:04:08;;;;;;;;;;;;;;;;;;6183246;23;19912;-78
2022/09/24 04:06:34;;;;;;;;;;;;;;;;;;6183637;23;20438;-79
2022/09/24 04:08:59;;;;;;;;;;;;;;;;;;6201788;23;19920;-80
2022/09/24 04:11:25;;;;;;;;;;;;;;;;;;6186240;23;19936;-82
2022/09/24 04:13:50;;;;;;;;;;;;;;;;;;6182992;23;20043;-78
2022/09/24 04:16:16;;;;;;;;;;;;;;;;;;6182484;23;19912;-77
2022/09/24 04:18:42;;;;;;;;;;;;;;;;;;6182766;23;19951;-78
2022/09/24 04:21:07;;;;;;;;;;;;;;;;;;6182403;23;19991;-78
2022/09/24 04:23:33;;;;;;;;;;;;;;;;;;6180923;23;19912;-79
2022/09/24 04:26:02;;;;;;;;;;;;;;;;;;6156151;23;19959;-79
2022/09/24 04:28:28;;;;;;;;;;;;;;;;;;6183987;23;19922;-80
2022/09/24 04:30:54;;;;;;;;;;;;;;;;;;6184275;23;19912;-78
2022/09/24 04:33:20;;;;;;;;;;;;;;;;;;6182692;23;19923;-77
2022/09/24 04:35:46;;;;;;;;;;;;;;;;;;6182478;23;19927;-79
2022/09/24 04:38:11;;;;;;;;;;;;;;;;;;6182269;23;19997;-80
2022/09/24 04:40:38;;;;;;;;;;;;;;;;;;6182478;23;19919;-81
2022/09/24 04:43:04;;;;;;;;;;;;;;;;;;6182991;23;19916;-79
2022/09/24 04:45:31;;;;;;;;;;;;;;;;;;6182646;23;20356;-79
2022/09/24 04:47:56;;;;;;;;;;;;;;;;;;6182294;23;19912;-79
2022/09/24 04:50:22;;;;;;;;;;;;;;;;;;6181930;23;20457;-79
2022/09/24 04:52:51;;;;;;;;;;;;;;;;;;6156075;23;19966;-82
2022/09/24 04:55:18;;;;;;;;;;;;;;;;;;6182058;23;19916;-82
2022/09/24 04:57:44;;;;;;;;;;;;;;;;;;6182612;23;19912;-80
2022/09/24 05:00:10;;;;;;;;;;;;;;;;;;6180457;23;19916;-80
2022/09/24 05:02:35;;;;;;;;;;;;;;;;;;6181188;23;19960;-79
2022/09/24 05:05:01;;;;;;;;;;;;;;;;;;6182177;23;19962;-79
2022/09/24 05:07:28;;;;;;;;;;;;;;;;;;6181879;23;19912;-79
2022/09/24 05:09:54;;;;;;;;;;;;;;;;;;6182305;23;19920;-79
2022/09/24 05:12:20;;;;;;;;;;;;;;;;;;6155441;23;19939;-80
2022/09/24 05:14:45;;;;;;;;;;;;;;;;;;6181900;23;19912;-80
2022/09/24 05:17:11;;;;;;;;;;;;;;;;;;6182053;23;19954;-80
2022/09/24 05:19:36;;;;;;;;;;;;;;;;;;6180210;23;20007;-81
2022/09/24 05:22:02;;;;;;;;;;;;;;;;;;6181490;23;19944;-79
2022/09/24 05:24:27;;;;;;;;;;;;;;;;;;6155071;23;19912;-78
2022/09/24 05:27:09;;;;;;;;;;;;;;;;;;6155496;23;19912;-79
2022/09/24 05:29:34;;;;;;;;;;;;;;;;;;6179959;23;19927;-77
2022/09/24 05:32:02;;;;;;;;;;;;;;;;;;6155408;23;20300;-79
2022/09/24 05:34:29;;;;;;;;;;;;;;;;;;6155255;23;20297;-79
2022/09/24 05:36:54;;;;;;;;;;;;;;;;;;6180473;23;19959;-79
2022/09/24 05:39:20;;;;;;;;;;;;;;;;;;6181877;23;19916;-79
2022/09/24 05:41:46;;;;;;;;;;;;;;;;;;6182001;23;19912;-77
2022/09/24 05:44:11;;;;;;;;;;;;;;;;;;6180630;23;20265;-78
2022/09/24 05:46:37;;;;;;;;;;;;;;;;;;6182249;23;19928;-78
2022/09/24 05:49:02;;;;;;;;;;;;;;;;;;6181799;23;20016;-77
2022/09/24 05:51:28;;;;;;;;;;;;;;;;;;6176255;23;19912;-76
2022/09/24 05:53:53;;;;;;;;;;;;;;;;;;6181154;23;19939;-80
2022/09/24 05:56:19;;;;;;;;;;;;;;;;;;6180579;23;20363;-78
2022/09/24 05:58:44;;;;;;;;;;;;;;;;;;6182181;23;19919;-80
2022/09/24 06:01:10;;;;;;;;;;;;;;;;;;6182562;23;19919;-80
2022/09/24 06:03:36;;;;;;;;;;;;;;;;;;6170709;23;19923;-80
2022/09/24 06:06:01;;;;;;;;;;;;;;;;;;6185651;23;19918;-80
2022/09/24 06:08:27;;;;;;;;;;;;;;;;;;6183084;23;19916;-80
2022/09/24 06:10:53;;;;;;;;;;;;;;;;;;6183222;23;19923;-77
2022/09/24 06:13:19;;;;;;;;;;;;;;;;;;6187194;23;19912;-76
2022/09/24 06:15:45;;;;;;;;;;;;;;;;;;6189512;23;20022;-76
2022/09/24 06:18:11;;;;;;;;;;;;;;;;;;6193358;23;20280;-77
2022/09/24 06:20:36;;;;;;;;;;;;;;;;;;6162644;23;20289;-78
2022/09/24 06:23:02;;;;;;;;;;;;;;;;;;6179227;23;19959;-78
2022/09/24 06:25:27;;;;;;;;;;;;;;;;;;6179419;23;19918;-80
2022/09/24 06:27:59;;;;;;;;;;;;;;;;;;6180124;23;19912;-78
2022/09/24 06:30:24;;;;;;;;;;;;;;;;;;6179503;23;19920;-81
2022/09/24 06:32:50;;;;;;;;;;;;;;;;;;6153564;23;19967;-82
2022/09/24 06:35:15;;;;;;;;;;;;;;;;;;6178250;23;19912;-81
2022/09/24 06:37:41;;;;;;;;;;;;;;;;;;6180802;23;20357;-84
2022/09/24 06:40:06;;;;;;;;;;;;;;;;;;6153998;23;19966;-83
2022/09/24 06:42:32;;;;;;;;;;;;;;;;;;6177273;23;19939;-80
2022/09/24 06:44:57;;;;;;;;;;;;;;;;;;6181207;23;19927;-82
2022/09/24 06:47:23;;;;;;;;;;;;;;;;;;6179880;23;20084;-83
2022/09/24 06:49:49;;;;;;;;;;;;;;;;;;6187713;23;19920;-88
2022/09/24 06:52:15;;;;;;;;;;;;;;;;;;6207026;23;20361;-86
2022/09/24 06:54:41;;;;;;;;;;;;;;;;;;6196088;23;19923;-82
2022/09/24 06:57:06;;;;;;;;;;;;;;;;;;6181706;23;20297;-82
2022/09/24 06:59:32;;;;;;;;;;;;;;;;;;6178000;23;19967;-82
2022/09/24 07:01:58;;;;;;;;;;;;;;;;;;6180472;23;20014;-81
2022/09/24 07:04:23;;;;;;;;;;;;;;;;;;6179510;23;20299;-79
2022/09/24 07:09:35;;;;;;;;;;;;;;;;;;6179529;23;20006;-77
2022/09/24 07:12:04;;;;;;;;;;;;;;;;;;6179620;23;19935;-81
2022/09/24 07:14:29;;;;;;;;;;;;;;;;;;6152823;23;19912;-81
2022/09/24 07:16:55;;;;;;;;;;;;;;;;;;6179731;23;19919;-82
2022/09/24 07:19:20;;;;;;;;;;;;;;;;;;6179385;23;19912;-81
2022/09/24 07:21:46;;;;;;;;;;;;;;;;;;6179898;23;19923;-81
2022/09/24 07:24:11;;;;;;;;;;;;;;;;;;6179996;23;19934;-81
2022/09/24 07:26:37;;;;;;;;;;;;;;;;;;6179994;23;19912;-83
2022/09/24 07:29:02;;;;;;;;;;;;;;;;;;6180095;23;19920;-82
2022/09/24 07:31:28;;;;;;;;;;;;;;;;;;6179575;23;20067;-81
2022/09/24 07:33:53;;;;;;;;;;;;;;;;;;6180056;23;20349;-82
2022/09/24 07:36:19;;;;;;;;;;;;;;;;;;6179363;23;19922;-80
2022/09/24 07:38:45;;;;;;;;;;;;;;;;;;6179709;23;19947;-83
2022/09/24 07:41:11;;;;;;;;;;;;;;;;;;6179454;23;19947;-80
2022/09/24 07:43:37;;;;;;;;;;;;;;;;;;6180084;23;20230;-82
2022/09/24 07:46:03;;;;;;;;;;;;;;;;;;6179394;23;20274;-80
2022/09/24 07:48:28;;;;;;;;;;;;;;;;;;6152833;23;19916;-80
2022/09/24 07:50:54;;;;;;;;;;;;;;;;;;6178374;23;19913;-80
2022/09/24 07:53:20;;;;;;;;;;;;;;;;;;6179216;23;19919;-79
2022/09/24 07:55:46;;;;;;;;;;;;;;;;;;6180465;23;19912;-82
2022/09/24 07:58:12;;;;;;;;;;;;;;;;;;6196601;23;19912;-80
2022/09/24 08:00:37;;;;;;;;;;;;;;;;;;6183976;23;19912;-81
2022/09/24 08:03:04;;;;;;;;;;;;;;;;;;6181068;23;20002;-81
2022/09/24 08:05:29;;;;;;;;;;;;;;;;;;6179021;23;20336;-81
2022/09/24 08:07:55;;;;;;;;;;;;;;;;;;6179134;23;19912;-81
2022/09/24 08:10:21;;;;;;;;;;;;;;;;;;6178815;23;19959;-81
2022/09/24 08:12:46;;;;;;;;;;;;;;;;;;6179040;23;19931;-82
2022/09/24 08:15:12;;;;;;;;;;;;;;;;;;6179111;23;19923;-81
2022/09/24 08:17:38;;;;;;;;;;;;;;;;;;6152845;23;19916;-82
2022/09/24 08:20:03;;;;;;;;;;;;;;;;;;6179161;23;19999;-80
2022/09/24 08:22:30;;;;;;;;;;;;;;;;;;6178833;23;20645;-81
2022/09/24 08:24:56;;;;;;;;;;;;;;;;;;6177564;23;20169;-82
2022/09/24 08:27:24;;;;;;;;;;;;;;;;;;6179235;23;20418;-81
2022/09/24 08:29:49;;;;;;;;;;;;;;;;;;6181142;23;20340;-81
2022/09/24 08:32:15;;;;;;;;;;;;;;;;;;6182063;23;19912;-81
2022/09/24 08:34:40;;;;;;;;;;;;;;;;;;6182415;23;19959;-81
2022/09/24 08:37:06;;;;;;;;;;;;;;;;;;6181591;23;20357;-83
2022/09/24 08:39:32;;;;;;;;;;;;;;;;;;6183041;23;19974;-85
2022/09/24 08:41:58;;;;;;;;;;;;;;;;;;6185279;23;19919;-85
2022/09/24 08:47:23;;;;;;;;;;;;;;;;;;6186315;23;19944;-82
2022/09/24 08:49:48;;;;;;;;;;;;;;;;;;6199255;23;19935;-83
2022/09/24 08:52:14;;;;;;;;;;;;;;;;;;6188689;23;19935;-83
2022/09/24 08:54:40;;;;;;;;;;;;;;;;;;6198460;23;20383;-83
2022/09/24 08:57:06;;;;;;;;;;;;;;;;;;6182442;23;19919;-83
2022/09/24 08:59:31;;;;;;;;;;;;;;;;;;6191014;23;19911;-85
2022/09/24 09:01:57;;;;;;;;;;;;;;;;;;6184755;23;19896;-87
2022/09/24 09:04:23;;;;;;;;;;;;;;;;;;6201476;23;19927;-85
2022/09/24 09:06:49;;;;;;;;;;;;;;;;;;6193897;23;19975;-82
2022/09/24 09:09:15;;;;;;;;;;;;;;;;;;6171931;23;20388;-84
2022/09/24 09:11:40;;;;;;;;;;;;;;;;;;6194146;23;19912;-83
2022/09/24 09:14:06;;;;;;;;;;;;;;;;;;6189498;23;19923;-82
2022/09/24 09:16:31;;;;;;;;;;;;;;;;;;6162315;23;19944;-86
2022/09/24 09:18:57;;;;;;;;;;;;;;;;;;6183126;23;19975;-83
2022/09/24 09:21:22;;;;;;;;;;;;;;;;;;6189103;23;19974;-82
2022/09/24 09:23:48;;;;;;;;;;;;;;;;;;6190942;23;19935;-84
2022/09/24 09:26:13;;;;;;;;;;;;;;;;;;6161697;23;19958;-83
2022/09/24 09:28:39;;;;;;;;;;;;;;;;;;6186601;23;19947;-83
2022/09/24 09:31:05;;;;;;;;;;;;;;;;;;6191501;23;20345;-84
2022/09/24 09:33:31;;;;;;;;;;;;;;;;;;6188829;23;19912;-83
2022/09/24 09:35:57;;;;;;;;;;;;;;;;;;6183147;23;19920;-83
2022/09/24 09:38:22;;;;;;;;;;;;;;;;;;6156012;23;20277;-82
2022/09/24 09:40:48;;;;;;;;;;;;;;;;;;6182662;23;19912;-83
2022/09/24 09:43:13;;;;;;;;;;;;;;;;;;6182716;23;19919;-82
2022/09/24 09:45:39;;;;;;;;;;;;;;;;;;6178472;23;20416;-85
2022/09/24 09:48:04;;;;;;;;;;;;;;;;;;6171767;23;19916;-81
2022/09/24 09:50:30;;;;;;;;;;;;;;;;;;6195093;23;20273;-81
2022/09/24 09:52:56;;;;;;;;;;;;;;;;;;6165175;23;19910;-85
2022/09/24 09:55:21;;;;;;;;;;;;;;;;;;6208154;23;19919;-85
2022/09/24 09:57:47;;;;;;;;;;;;;;;;;;6188072;23;19919;-82
2022/09/24 10:00:13;;;;;;;;;;;;;;;;;;6180360;23;20249;-83
2022/09/24 10:02:38;;;;;;;;;;;;;;;;;;6199394;23;20048;-88
2022/09/24 10:05:04;;;;;;;;;;;;;;;;;;6181319;23;19912;-84
2022/09/24 10:07:30;;;;;;;;;;;;;;;;;;6196358;23;19912;-81
2022/09/24 10:09:55;;;;;;;;;;;;;;;;;;6165119;23;19920;-80
2022/09/24 10:12:21;;;;;;;;;;;;;;;;;;6172439;23;20227;-80
2022/09/24 10:14:47;;;;;;;;;;;;;;;;;;6180060;23;19987;-81
2022/09/24 10:17:13;;;;;;;;;;;;;;;;;;6157179;23;19917;-81
2022/09/24 10:19:38;;;;;;;;;;;;;;;;;;6153499;23;19919;-82
2022/09/24 10:22:04;;;;;;;;;;;;;;;;;;6179409;23;20407;-81
2022/09/24 10:24:29;;;;;;;;;;;;;;;;;;6179967;23;19912;-83
2022/09/24 10:26:55;;;;;;;;;;;;;;;;;;6181544;23;19918;-83
2022/09/24 10:32:05;;;;;;;;;;;;;;;;;;6166520;23;20344;-82
2022/09/24 10:34:30;;;;;;;;;;;;;;;;;;6181532;23;19923;-85
2022/09/24 10:36:56;;;;;;;;;;;;;;;;;;6160966;23;20447;-81
2022/09/24 10:39:21;;;;;;;;;;;;;;;;;;6181203;23;20075;-83
2022/09/24 10:41:47;;;;;;;;;;;;;;;;;;6169438;23;19959;-82
2022/09/24 10:44:12;;;;;;;;;;;;;;;;;;6170384;23;19916;-82
2022/09/24 10:46:38;;;;;;;;;;;;;;;;;;6183447;23;19913;-82
2022/09/24 10:49:04;;;;;;;;;;;;;;;;;;6162406;23;19921;-81
2022/09/24 10:51:29;;;;;;;;;;;;;;;;;;6195367;23;19999;-82
2022/09/24 10:53:55;;;;;;;;;;;;;;;;;;6186478;23;19913;-85
2022/09/24 10:56:20;;;;;;;;;;;;;;;;;;6191264;23;20332;-82
2022/09/24 10:58:46;;;;;;;;;;;;;;;;;;6186409;23;19943;-84
2022/09/24 11:01:11;;;;;;;;;;;;;;;;;;6156343;23;19955;-83
2022/09/24 11:03:37;;;;;;;;;;;;;;;;;;6184318;23;19967;-78
2022/09/24 11:06:03;;;;;;;;;;;;;;;;;;6179704;23;20379;-77
2022/09/24 11:08:28;;;;;;;;;;;;;;;;;;6157054;23;20332;-77
2022/09/24 11:10:54;;;;;;;;;;;;;;;;;;6179319;23;19912;-77
2022/09/24 11:13:20;;;;;;;;;;;;;;;;;;6179623;23;19924;-77
2022/09/24 11:15:47;;;;;;;;;;;;;;;;;;6176865;23;20574;-77
2022/09/24 11:18:13;;;;;;;;;;;;;;;;;;6179466;23;20329;-75
2022/09/24 11:20:38;;;;;;;;;;;;;;;;;;6177724;23;20268;-75
2022/09/24 11:23:04;;;;;;;;;;;;;;;;;;6128542;23;19935;-76
2022/09/24 11:25:29;;;;;;;;;;;;;;;;;;6179230;23;19934;-77
2022/09/24 11:27:55;;;;;;;;;;;;;;;;;;6179374;23;19916;-81
2022/09/24 11:30:23;;;;;;;;;;;;;;;;;;6152147;23;19927;-74
2022/09/24 11:32:49;;;;;;;;;;;;;;;;;;6176515;23;20634;-77
2022/09/24 11:35:14;;;;;;;;;;;;;;;;;;6175633;23;19947;-76
2022/09/24 11:37:41;;;;;;;;;;;;;;;;;;6130053;23;20353;-76
2022/09/24 11:40:06;;;;;;;;;;;;;;;;;;6178933;23;19940;-75
2022/09/24 11:42:32;;;;;;;;;;;;;;;;;;6156138;23;20295;-76
2022/09/24 11:44:57;;;;;;;;;;;;;;;;;;6151748;23;19918;-75
2022/09/24 11:47:25;;;;;;;;;;;;;;;;;;6178841;23;19917;-75
2022/09/24 11:49:51;;;;;;;;;;;;;;;;;;6177702;23;20007;-75
2022/09/24 11:52:17;;;;;;;;;;;;;;;;;;6148906;23;19940;-75
2022/09/24 11:54:43;;;;;;;;;;;;;;;;;;6177415;23;19923;-76
2022/09/24 11:57:09;;;;;;;;;;;;;;;;;;6154816;23;19912;-74
2022/09/24 11:59:35;;;;;;;;;;;;;;;;;;6178514;23;20031;-76
2022/09/24 12:02:00;;;;;;;;;;;;;;;;;;6178442;23;19947;-76
2022/09/24 12:04:26;;;;;;;;;;;;;;;;;;6177800;23;19939;-76
2022/09/24 12:06:53;;;;;;;;;;;;;;;;;;6179699;23;19919;-76
2022/09/24 12:09:18;;;;;;;;;;;;;;;;;;6180858;23;19927;-75
2022/09/24 12:11:44;;;;;;;;;;;;;;;;;;6157959;23;20334;-74
2022/09/24 12:14:09;;;;;;;;;;;;;;;;;;6180067;23;19913;-74
2022/09/24 12:16:35;;;;;;;;;;;;;;;;;;6155217;23;20141;-77
2022/09/24 12:19:01;;;;;;;;;;;;;;;;;;6153819;23;19923;-79
2022/09/24 12:21:26;;;;;;;;;;;;;;;;;;6180735;23;19920;-79
2022/09/24 12:23:53;;;;;;;;;;;;;;;;;;6155301;23;19951;-79
2022/09/24 12:26:18;;;;;;;;;;;;;;;;;;6178198;23;19912;-77
2022/09/24 12:34:13;;;;;;;;;;;;;;;;;;6180164;23;20377;-77
2022/09/24 12:36:38;;;;;;;;;;;;;;;;;;6180471;23;19952;-77
2022/09/24 12:39:04;;;;;;;;;;;;;;;;;;6153693;23;19951;-78
2022/09/24 12:41:29;;;;;;;;;;;;;;;;;;6180109;23;19995;-77
2022/09/24 12:43:55;;;;;;;;;;;;;;;;;;6165937;23;19924;-76
2022/09/24 12:46:21;;;;;;;;;;;;;;;;;;6171294;23;19908;-77
2022/09/24 12:48:46;;;;;;;;;;;;;;;;;;6180091;23;19951;-77
2022/09/24 12:51:13;;;;;;;;;;;;;;;;;;6154237;23;19912;-77
2022/09/24 12:53:38;;;;;;;;;;;;;;;;;;6179775;23;20362;-77
2022/09/24 12:56:04;;;;;;;;;;;;;;;;;;6163457;23;19913;-77
2022/09/24 12:58:30;;;;;;;;;;;;;;;;;;6172140;23;20023;-76
2022/09/24 13:00:56;;;;;;;;;;;;;;;;;;6179196;23;20010;-76
2022/09/24 13:03:21;;;;;;;;;;;;;;;;;;6154719;23;19908;-78
2022/09/24 13:05:47;;;;;;;;;;;;;;;;;;6179498;23;20261;-76
2022/09/24 13:08:12;;;;;;;;;;;;;;;;;;6162454;23;20356;-76
2022/09/24 13:10:38;;;;;;;;;;;;;;;;;;6174224;23;19948;-76
2022/09/24 13:13:03;;;;;;;;;;;;;;;;;;6177911;23;19912;-76
2022/09/24 13:15:29;;;;;;;;;;;;;;;;;;6153254;23;19935;-76
2022/09/24 13:17:55;;;;;;;;;;;;;;;;;;6151815;23;19942;-76
2022/09/24 13:20:21;;;;;;;;;;;;;;;;;;6178235;23;19923;-76
2022/09/24 13:22:47;;;;;;;;;;;;;;;;;;6179374;23;19943;-75
2022/09/24 13:25:12;;;;;;;;;;;;;;;;;;6151682;23;20367;-74
2022/09/24 13:27:38;;;;;;;;;;;;;;;;;;6168492;23;19920;-75
2022/09/24 13:30:04;;;;;;;;;;;;;;;;;;6163940;23;19920;-77
2022/09/24 13:32:33;;;;;;;;;;;;;;;;;;6177195;23;20566;-74
2022/09/24 13:34:58;;;;;;;;;;;;;;;;;;6152004;23;19913;-74
2022/09/24 13:37:24;;;;;;;;;;;;;;;;;;6177599;23;19927;-74
2022/09/24 13:39:50;;;;;;;;;;;;;;;;;;6178243;23;19912;-79
2022/09/24 13:42:15;;;;;;;;;;;;;;;;;;6161308;23;19913;-78
2022/09/24 13:44:41;;;;;;;;;;;;;;;;;;6178110;23;19920;-78
2022/09/24 13:47:06;;;;;;;;;;;;;;;;;;6180656;23;19912;-78
2022/09/24 13:49:32;;;;;;;;;;;;;;;;;;6179927;23;20420;-79
2022/09/24 13:51:57;;;;;;;;;;;;;;;;;;6179346;23;19980;-77
2022/09/24 13:54:23;;;;;;;;;;;;;;;;;;6152361;23;19957;-75
2022/09/24 13:56:49;;;;;;;;;;;;;;;;;;6130128;23;19958;-76
2022/09/24 13:59:14;;;;;;;;;;;;;;;;;;6179532;23;19958;-74
2022/09/24 14:01:40;;;;;;;;;;;;;;;;;;6179782;23;19995;-76
2022/09/24 14:04:05;;;;;;;;;;;;;;;;;;6180286;23;20006;-80
2022/09/24 14:06:31;;;;;;;;;;;;;;;;;;6179068;23;19919;-76
2022/09/24 14:08:57;;;;;;;;;;;;;;;;;;6179299;23;19926;-76
2022/09/24 14:11:26;;;;;;;;;;;;;;;;;;6154901;23;19912;-77
2022/09/24 14:13:53;;;;;;;;;;;;;;;;;;6178798;23;19943;-76
2022/09/24 14:16:19;;;;;;;;;;;;;;;;;;6152758;23;19940;-78
2022/09/24 14:18:45;;;;;;;;;;;;;;;;;;6154546;23;19940;-71
2022/09/24 14:21:10;;;;;;;;;;;;;;;;;;6180070;23;19912;-75
2022/09/24 14:23:36;;;;;;;;;;;;;;;;;;6156472;23;20213;-77
2022/09/24 14:26:01;;;;;;;;;;;;;;;;;;6178569;23;19912;-79
2022/09/24 14:28:31;;;;;;;;;;;;;;;;;;6176609;23;19912;-77
2022/09/24 14:30:57;;;;;;;;;;;;;;;;;;6177949;23;20371;-76
2022/09/24 14:33:24;;;;;;;;;;;;;;;;;;6179286;23;19938;-77
2022/09/24 14:35:50;;;;;;;;;;;;;;;;;;6177858;23;19955;-75
2022/09/24 14:38:16;;;;;;;;;;;;;;;;;;6156599;23;19919;-75
2022/09/24 14:40:41;;;;;;;;;;;;;;;;;;6177810;23;19916;-79
2022/09/24 14:43:07;;;;;;;;;;;;;;;;;;6175765;23;19947;-76
2022/09/24 14:45:38;;;;;;;;;;;;;;;;;;6178355;23;20349;-76
2022/09/24 14:48:04;;;;;;;;;;;;;;;;;;6177768;23;19912;-76
2022/09/24 14:50:31;;;;;;;;;;;;;;;;;;6177228;23;19950;-77
2022/09/24 14:52:59;;;;;;;;;;;;;;;;;;6178370;23;20107;-76
2022/09/24 14:55:25;;;;;;;;;;;;;;;;;;6177747;23;19919;-78
2022/09/24 14:57:50;;;;;;;;;;;;;;;;;;6178976;23;19912;-77
2022/09/24 15:00:16;;;;;;;;;;;;;;;;;;6178929;23;19912;-78
2022/09/24 15:02:41;;;;;;;;;;;;;;;;;;6182461;23;19939;-79
2022/09/24 15:05:07;;;;;;;;;;;;;;;;;;6191871;23;19921;-78
2022/09/24 15:07:33;;;;;;;;;;;;;;;;;;6183938;23;19916;-80
2022/09/24 15:09:59;;;;;;;;;;;;;;;;;;6187796;23;19924;-77
2022/09/24 15:12:29;;;;;;;;;;;;;;;;;;6153125;23;19915;-82
2022/09/24 15:14:55;;;;;;;;;;;;;;;;;;6179549;23;20359;-82
2022/09/24 15:17:21;;;;;;;;;;;;;;;;;;6159640;23;19912;-83
2022/09/24 15:19:46;;;;;;;;;;;;;;;;;;6148128;23;19908;-78
2022/09/24 15:22:12;;;;;;;;;;;;;;;;;;6179878;23;19950;-77
2022/09/24 15:24:37;;;;;;;;;;;;;;;;;;6179214;23;19967;-77
2022/09/24 15:27:03;;;;;;;;;;;;;;;;;;6179115;23;19939;-77
2022/09/24 15:29:28;;;;;;;;;;;;;;;;;;6179571;23;19928;-77
2022/09/24 15:31:55;;;;;;;;;;;;;;;;;;6155748;23;19982;-78
2022/09/24 15:34:20;;;;;;;;;;;;;;;;;;6178628;23;20257;-77
2022/09/24 15:36:46;;;;;;;;;;;;;;;;;;6177688;23;19920;-77
2022/09/24 15:39:12;;;;;;;;;;;;;;;;;;6183275;23;19935;-77
2022/09/24 15:41:37;;;;;;;;;;;;;;;;;;6193537;23;19912;-78
2022/09/24 15:44:03;;;;;;;;;;;;;;;;;;6183104;23;19923;-77
2022/09/24 15:46:28;;;;;;;;;;;;;;;;;;6128232;23;19912;-77
2022/09/24 15:48:54;;;;;;;;;;;;;;;;;;6179594;23;19927;-76
2022/09/24 15:51:19;;;;;;;;;;;;;;;;;;6158827;23;19922;-76
2022/09/24 15:53:45;;;;;;;;;;;;;;;;;;6175979;23;19912;-74
2022/09/24 15:56:11;;;;;;;;;;;;;;;;;;6177821;23;19916;-74
2022/09/24 15:58:36;;;;;;;;;;;;;;;;;;6177551;23;20357;-75
2022/09/24 16:01:02;;;;;;;;;;;;;;;;;;6179364;23;19955;-75
2022/09/24 16:03:27;;;;;;;;;;;;;;;;;;6178060;23;19920;-75
2022/09/24 16:05:53;;;;;;;;;;;;;;;;;;6153968;23;19916;-74
2022/09/24 16:08:18;;;;;;;;;;;;;;;;;;6176521;23;19912;-75
2022/09/24 16:10:44;;;;;;;;;;;;;;;;;;6164368;23;20324;-75
2022/09/24 16:13:10;;;;;;;;;;;;;;;;;;6166771;23;20348;-76
2022/09/24 16:15:35;;;;;;;;;;;;;;;;;;6177902;23;19913;-77
2022/09/24 16:18:01;;;;;;;;;;;;;;;;;;6178853;23;19919;-77
2022/09/24 16:20:26;;;;;;;;;;;;;;;;;;6178334;23;19966;-73
2022/09/24 16:22:52;;;;;;;;;;;;;;;;;;6177005;23;19959;-73
2022/09/24 16:25:17;;;;;;;;;;;;;;;;;;6158092;23;19995;-74
2022/09/24 16:27:43;;;;;;;;;;;;;;;;;;6175141;23;19917;-74
2022/09/24 16:30:09;;;;;;;;;;;;;;;;;;6177202;23;19963;-74
2022/09/24 16:32:34;;;;;;;;;;;;;;;;;;6155163;23;20194;-75
2022/09/24 16:35:00;;;;;;;;;;;;;;;;;;6178295;23;19959;-75
2022/09/24 16:37:26;;;;;;;;;;;;;;;;;;6156495;23;19920;-78
2022/09/24 16:39:51;;;;;;;;;;;;;;;;;;6178834;23;19959;-77
2022/09/24 16:42:17;;;;;;;;;;;;;;;;;;6179066;23;19912;-75
2022/09/24 16:44:42;;;;;;;;;;;;;;;;;;6179146;23;19922;-76
2022/09/24 16:47:08;;;;;;;;;;;;;;;;;;6178209;23;19939;-77
2022/09/24 16:49:34;;;;;;;;;;;;;;;;;;6155799;23;19924;-81
2022/09/24 16:52:00;;;;;;;;;;;;;;;;;;6156221;23;19918;-78
2022/09/24 16:54:25;;;;;;;;;;;;;;;;;;6180130;23;20261;-77
2022/09/24 16:56:51;;;;;;;;;;;;;;;;;;6178586;23;19916;-77